Time;durP1;ratioP1;P1;durP2;ratioP2;P2;SDS_P1;SDS_P2;PMS_P1;PMS_P2;Temp;Humidity;BMP_temperature;BMP_pressure;BME280_temperature;BME280_humidity;BME280_pressure;Samples;Min_cycle;Max_cycle;Signal;HPM_P1;HPM_P2
2022/03/01 00:00:00;;;;;;;21.15;18.27;;;;;;;0.48;60.36;95559.38;5096346;28;20523;-63
2022/03/01 00:02:27;;;;;;;20.77;18.52;;;;;;;0.53;60.16;95555.81;5096416;28;20249;-63
2022/03/01 00:04:55;;;;;;;18.08;16.17;;;;;;;0.51;59.80;95552.56;5096259;28;20204;-63
2022/03/01 00:07:21;;;;;;;16.38;14.68;;;;;;;0.52;59.61;95551.47;5096036;28;20212;-63
2022/03/01 00:09:48;;;;;;;16.05;14.35;;;;;;;0.52;59.78;95548.78;5096113;28;20200;-63
2022/03/01 00:12:16;;;;;;;16.10;14.55;;;;;;;0.53;59.51;95540.34;5096231;28;20180;-63
2022/03/01 00:14:43;;;;;;;15.52;13.93;;;;;;;0.47;59.66;95547.69;5096167;28;20185;-63
2022/03/01 00:17:10;;;;;;;15.55;13.95;;;;;;;0.38;59.68;95545.81;5095415;28;20196;-63
2022/03/01 00:19:37;;;;;;;15.30;13.80;;;;;;;0.37;60.33;95546.94;5095788;28;20189;-63
2022/03/01 00:22:05;;;;;;;14.18;12.77;;;;;;;0.39;59.89;95544.72;5095527;28;20215;-63
2022/03/01 00:24:32;;;;;;;15.50;13.95;;;;;;;0.38;59.84;95537.69;5095316;28;20226;-63
2022/03/01 00:26:58;;;;;;;15.25;13.75;;;;;;;0.29;60.67;95539.31;5095805;28;20514;-63
2022/03/01 00:29:25;;;;;;;15.13;13.73;;;;;;;0.18;60.91;95538.53;5095617;28;20244;-63
2022/03/01 00:31:52;;;;;;;14.82;13.43;;;;;;;0.14;61.03;95535.56;5095417;28;20270;-63
2022/03/01 00:34:19;;;;;;;13.57;12.27;;;;;;;0.14;60.97;95535.56;5095481;28;20615;-63
2022/03/01 00:37:04;;;;;;;13.32;12.05;;;;;;;0.12;60.98;95526.91;5095517;28;20184;-62
2022/03/01 00:39:32;;;;;;;13.02;11.73;;;;;;;0.08;61.18;95525.84;5095675;28;20188;-63
2022/03/01 00:41:59;;;;;;;13.18;11.93;;;;;;;0.04;61.87;95527.50;5094496;28;20204;-63
2022/03/01 00:44:26;;;;;;;12.73;11.52;;;;;;;-0.05;62.44;95527.22;5094312;28;20208;-63
2022/03/01 00:46:53;;;;;;;12.35;11.15;;;;;;;-0.07;61.83;95526.69;5094872;28;20199;-63
2022/03/01 00:49:20;;;;;;;11.57;10.48;;;;;;;-0.09;61.91;95526.16;5094664;28;20220;-63
2022/03/01 00:51:47;;;;;;;11.20;10.10;;;;;;;-0.07;61.75;95515.03;5095341;28;20196;-63
2022/03/01 00:54:14;;;;;;;9.57;8.65;;;;;;;-0.08;61.75;95511.50;5095616;28;20585;-63
2022/03/01 00:56:42;;;;;;;8.68;7.90;;;;;;;-0.11;61.71;95511.22;5095435;28;20204;-63
2022/03/01 00:59:09;;;;;;;7.05;6.45;;;;;;;-0.10;61.47;95512.88;5095200;28;20188;-64
2022/03/01 01:01:36;;;;;;;7.70;7.10;;;;;;;-0.16;61.93;95508.53;5094555;28;20200;-64
2022/03/01 01:04:03;;;;;;;7.07;6.47;;;;;;;-0.16;61.96;95509.34;5094468;28;20196;-63
2022/03/01 01:06:31;;;;;;;6.90;6.32;;;;;;;-0.14;61.98;95504.47;5094545;28;20216;-63
2022/03/01 01:08:57;;;;;;;6.53;6.03;;;;;;;-0.18;61.99;95508.81;5095140;28;20200;-63
2022/03/01 01:11:24;;;;;;;6.90;6.30;;;;;;;-0.20;62.57;95511.00;5094080;28;20211;-63
2022/03/01 01:13:53;;;;;;;6.88;6.28;;;;;;;-0.20;62.68;95512.88;5094692;28;20207;-63
2022/03/01 01:16:19;;;;;;;6.93;6.35;;;;;;;-0.21;62.67;95517.50;5094308;28;20195;-63
2022/03/01 01:18:46;;;;;;;7.32;6.63;;;;;;;-0.26;62.78;95518.31;5095150;28;20532;-63
2022/03/01 01:21:14;;;;;;;7.28;6.68;;;;;;;-0.28;63.23;95509.66;5095154;28;20198;-63
2022/03/01 01:23:41;;;;;;;7.80;7.10;;;;;;;-0.33;63.19;95515.09;5095206;28;20188;-63
2022/03/01 01:26:08;;;;;;;8.20;7.50;;;;;;;-0.37;63.54;95510.47;5094257;28;20216;-63
2022/03/01 01:28:35;;;;;;;9.45;8.55;;;;;;;-0.38;63.94;95514.28;5094847;28;20199;-63
2022/03/01 01:31:03;;;;;;;17.15;15.38;;;;;;;-0.43;64.15;95500.72;5094353;28;20203;-63
2022/03/01 01:33:30;;;;;;;21.63;19.02;;;;;;;-0.41;64.14;95499.34;5094993;28;20193;-63
2022/03/01 01:35:57;;;;;;;22.63;20.30;;;;;;;-0.46;64.22;95498.56;5094846;28;20183;-63
2022/03/01 01:38:24;;;;;;;25.48;22.77;;;;;;;-0.49;64.26;95495.31;5095242;28;20196;-62
2022/03/01 01:40:51;;;;;;;25.75;23.05;;;;;;;-0.49;64.02;95489.06;5094965;28;20597;-62
2022/03/01 01:43:17;;;;;;;24.42;21.92;;;;;;;-0.51;64.51;95492.06;5095235;28;20203;-62
2022/03/01 01:45:44;;;;;;;22.42;20.15;;;;;;;-0.54;64.15;95491.81;5094474;28;20578;-62
2022/03/01 01:48:13;;;;;;;21.60;19.60;;;;;;;-0.55;64.01;95487.44;5094645;28;20185;-62
2022/03/01 01:50:40;;;;;;;20.35;18.45;;;;;;;-0.57;63.95;95484.22;5094950;28;20184;-62
2022/03/01 01:53:07;;;;;;;21.08;18.80;;;;;;;-0.58;63.94;95483.41;5095090;28;20207;-62
2022/03/01 01:55:34;;;;;;;20.65;18.55;;;;;;;-0.59;63.78;95478.25;5094591;28;20181;-63
2022/03/01 01:58:01;;;;;;;20.55;18.55;;;;;;;-0.63;64.11;95486.09;5094282;28;20207;-63
2022/03/01 02:00:29;;;;;;;19.83;17.83;;;;;;;-0.61;64.53;95478.53;5094225;28;20210;-63
2022/03/01 02:02:56;;;;;;;18.63;16.67;;;;;;;-0.62;64.34;95484.19;5095575;28;20180;-63
2022/03/01 02:05:24;;;;;;;19.13;17.17;;;;;;;-0.65;65.01;95477.44;5094941;28;20212;-63
2022/03/01 02:07:51;;;;;;;18.38;16.58;;;;;;;-0.68;65.15;95478.00;5094875;28;20189;-63
2022/03/01 02:10:18;;;;;;;18.95;17.15;;;;;;;-0.70;64.96;95474.72;5094426;28;20211;-63
2022/03/01 02:12:45;;;;;;;21.88;19.77;;;;;;;-0.76;65.37;95473.13;5093897;28;20192;-63
2022/03/01 02:15:12;;;;;;;20.25;18.23;;;;;;;-0.90;65.62;95474.75;5096323;28;20184;-63
2022/03/01 02:17:41;;;;;;;20.35;18.35;;;;;;;-0.86;65.94;95473.13;5098395;28;20195;-63
2022/03/01 02:20:15;;;;;;;20.25;17.77;;;;;;;-0.85;65.63;95467.41;5098289;28;20605;-63
2022/03/01 02:22:42;;;;;;;19.58;17.58;;;;;;;-0.86;65.40;95451.44;5097383;28;20200;-63
2022/03/01 02:25:10;;;;;;;19.83;17.92;;;;;;;-0.90;65.99;95444.97;5096985;28;20212;-63
2022/03/01 02:27:37;;;;;;;18.50;16.88;;;;;;;-0.93;66.06;95440.88;5098673;28;20227;-63
2022/03/01 02:30:04;;;;;;;18.30;16.50;;;;;;;-0.91;66.19;95443.31;5098268;28;20251;-63
2022/03/01 02:32:31;;;;;;;17.83;16.08;;;;;;;-0.92;65.30;95437.09;5097276;28;20196;-63
2022/03/01 02:35:00;;;;;;;19.05;17.23;;;;;;;-0.99;65.88;95445.47;5097428;28;20502;-63
2022/03/01 02:37:28;;;;;;;17.10;15.40;;;;;;;-1.01;66.82;95452.28;5097074;28;20259;-63
2022/03/01 02:39:54;;;;;;;16.40;14.90;;;;;;;-1.04;66.64;95445.50;5097521;28;20196;-63
2022/03/01 02:42:21;;;;;;;15.85;14.35;;;;;;;-1.07;66.73;95446.03;5097993;28;20207;-63
2022/03/01 02:44:48;;;;;;;15.77;14.23;;;;;;;-1.17;66.17;95437.88;5097571;28;20204;-63
2022/03/01 02:47:15;;;;;;;16.20;14.70;;;;;;;-1.19;66.69;95448.19;5096883;28;20620;-63
2022/03/01 02:49:43;;;;;;;16.30;14.80;;;;;;;-1.21;66.67;95453.06;5096916;28;20215;-63
2022/03/01 02:52:10;;;;;;;16.58;14.98;;;;;;;-1.12;66.45;95451.44;5097396;28;20200;-63
2022/03/01 02:54:38;;;;;;;17.92;16.13;;;;;;;-1.05;66.17;95452.00;5097954;28;20194;-63
2022/03/01 02:57:05;;;;;;;17.85;16.15;;;;;;;-1.09;65.97;95452.78;5097681;28;20195;-63
2022/03/01 02:59:32;;;;;;;16.95;15.43;;;;;;;-1.12;65.93;95459.56;5097755;28;20196;-63
2022/03/01 03:01:59;;;;;;;18.25;16.50;;;;;;;-1.15;65.98;95456.59;5096840;28;20609;-63
2022/03/01 03:04:26;;;;;;;16.58;14.93;;;;;;;-1.16;65.99;95453.06;5097053;28;20196;-63
2022/03/01 03:06:54;;;;;;;16.27;14.70;;;;;;;-1.19;65.04;95455.50;5097479;28;20204;-63
2022/03/01 03:09:21;;;;;;;17.13;15.52;;;;;;;-1.34;65.32;95459.00;5096266;28;20215;-63
2022/03/01 03:11:50;;;;;;;16.58;14.98;;;;;;;-1.35;66.38;95446.53;5097905;28;20188;-63
2022/03/01 03:14:17;;;;;;;15.27;13.93;;;;;;;-1.36;65.69;95464.66;5097566;28;20189;-63
2022/03/01 03:16:43;;;;;;;15.27;13.88;;;;;;;-1.33;66.26;95460.63;5096081;28;20190;-63
2022/03/01 03:19:15;;;;;;;16.00;14.52;;;;;;;-1.31;65.82;95466.56;5096600;28;20199;-63
2022/03/01 03:21:42;;;;;;;15.23;13.88;;;;;;;-1.35;65.20;95458.16;5096349;28;20192;-63
2022/03/01 03:24:09;;;;;;;15.20;13.82;;;;;;;-1.36;65.46;95464.66;5097362;28;20188;-63
2022/03/01 03:26:35;;;;;;;15.05;13.75;;;;;;;-1.38;65.83;95457.88;5095072;28;20224;-63
2022/03/01 03:29:04;;;;;;;14.80;13.50;;;;;;;-1.35;65.71;95455.47;5096801;28;20243;-63
2022/03/01 03:31:31;;;;;;;14.95;13.55;;;;;;;-1.39;65.91;95464.41;5095974;28;20197;-63
2022/03/01 03:33:58;;;;;;;16.33;14.85;;;;;;;-1.40;65.99;95465.47;5095757;28;20201;-63
2022/03/01 03:36:24;;;;;;;16.83;15.32;;;;;;;-1.43;65.49;95468.72;5096926;28;20200;-63
2022/03/01 03:38:51;;;;;;;15.02;13.70;;;;;;;-1.40;65.41;95463.59;5096156;28;20207;-63
2022/03/01 03:41:18;;;;;;;14.25;12.95;;;;;;;-1.38;64.68;95466.00;5095815;28;20211;-63
2022/03/01 03:43:45;;;;;;;13.63;12.25;;;;;;;-1.41;64.95;95467.38;5096866;28;20176;-63
2022/03/01 03:46:13;;;;;;;13.25;11.95;;;;;;;-1.40;64.75;95465.47;5096654;28;20218;-63
2022/03/01 03:48:40;;;;;;;13.88;12.57;;;;;;;-1.47;64.70;95474.66;5096116;28;20211;-63
2022/03/01 03:51:07;;;;;;;14.73;13.43;;;;;;;-1.48;64.73;95469.53;5096802;28;20199;-63
2022/03/01 03:53:34;;;;;;;13.85;12.60;;;;;;;-1.53;65.22;95467.59;5096505;28;20473;-63
2022/03/01 03:56:01;;;;;;;15.10;13.80;;;;;;;-1.56;65.11;95468.16;5096664;28;20503;-63
2022/03/01 03:58:28;;;;;;;13.13;12.07;;;;;;;-1.52;65.13;95471.94;5095920;28;20243;-63
2022/03/01 04:00:54;;;;;;;14.20;13.00;;;;;;;-1.55;64.67;95461.66;5096117;28;20636;-63
2022/03/01 04:03:23;;;;;;;14.50;13.20;;;;;;;-1.56;64.68;95461.91;5096389;28;20198;-63
2022/03/01 04:05:50;;;;;;;14.88;13.40;;;;;;;-1.55;64.82;95458.16;5096344;28;20295;-63
2022/03/01 04:08:17;;;;;;;15.43;13.68;;;;;;;-1.60;64.99;95460.81;5095660;28;20193;-63
2022/03/01 04:10:44;;;;;;;15.43;13.95;;;;;;;-1.67;65.26;95461.09;5096509;28;20350;-63
2022/03/01 04:13:11;;;;;;;16.27;14.57;;;;;;;-1.66;65.45;95459.19;5096409;28;20185;-63
2022/03/01 04:15:38;;;;;;;17.48;15.52;;;;;;;-1.67;65.56;95449.44;5095846;28;20517;-63
2022/03/01 04:18:05;;;;;;;18.50;16.50;;;;;;;-1.68;64.82;95459.44;5096183;28;20189;-63
2022/03/01 04:20:34;;;;;;;18.92;16.92;;;;;;;-1.70;65.03;95458.91;5095159;28;20201;-63
2022/03/01 04:23:00;;;;;;;18.40;16.50;;;;;;;-1.73;64.97;95462.16;5095008;28;20291;-63
2022/03/01 04:25:27;;;;;;;19.25;17.23;;;;;;;-1.74;65.49;95461.34;5095779;28;20185;-63
2022/03/01 04:27:54;;;;;;;18.75;16.85;;;;;;;-1.72;65.66;95463.78;5095959;28;20188;-63
2022/03/01 04:30:21;;;;;;;20.70;18.60;;;;;;;-1.74;65.42;95466.75;5095525;28;20242;-63
2022/03/01 04:32:47;;;;;;;22.17;19.17;;;;;;;-1.80;65.69;95462.41;5095910;28;20180;-63
2022/03/01 04:35:15;;;;;;;19.92;18.02;;;;;;;-1.85;66.39;95456.16;5095736;28;20195;-63
2022/03/01 04:37:44;;;;;;;20.02;17.85;;;;;;;-1.89;65.92;95452.34;5095481;28;20180;-63
2022/03/01 04:40:13;;;;;;;21.00;18.77;;;;;;;-1.95;65.37;95465.06;5095764;28;20192;-63
2022/03/01 04:42:40;;;;;;;21.67;19.38;;;;;;;-2.06;65.56;95464.19;5095006;28;20211;-63
2022/03/01 04:45:08;;;;;;;20.38;18.38;;;;;;;-2.06;66.07;95474.19;5095788;28;20199;-63
2022/03/01 04:47:35;;;;;;;19.70;17.70;;;;;;;-2.04;66.34;95472.84;5095561;28;20632;-63
2022/03/01 04:50:03;;;;;;;17.70;15.93;;;;;;;-2.00;66.51;95471.25;5094451;28;20199;-63
2022/03/01 04:52:30;;;;;;;18.45;16.65;;;;;;;-1.98;66.29;95468.28;5094921;28;20192;-63
2022/03/01 04:54:58;;;;;;;18.05;16.20;;;;;;;-1.97;66.43;95473.41;5095433;28;20177;-63
2022/03/01 04:57:25;;;;;;;18.52;16.73;;;;;;;-1.99;66.59;95475.56;5095418;28;20184;-63
2022/03/01 04:59:52;;;;;;;20.08;18.10;;;;;;;-1.98;66.31;95477.19;5095689;28;20194;-63
2022/03/01 05:02:19;;;;;;;19.38;17.38;;;;;;;-2.02;66.98;95480.69;5095439;28;20616;-63
2022/03/01 05:04:46;;;;;;;19.17;17.27;;;;;;;-2.04;67.49;95480.94;5094617;28;20196;-65
2022/03/01 05:07:13;;;;;;;21.17;19.08;;;;;;;-1.97;67.25;95480.72;5094434;28;20212;-63
2022/03/01 05:09:40;;;;;;;21.17;19.17;;;;;;;-1.97;67.11;95473.41;5094490;28;20199;-63
2022/03/01 05:12:09;;;;;;;21.23;19.42;;;;;;;-1.99;67.51;95478.28;5094529;28;20215;-62
2022/03/01 05:14:35;;;;;;;22.33;20.27;;;;;;;-1.98;67.21;95481.78;5094465;28;20222;-63
2022/03/01 05:17:02;;;;;;;21.95;19.88;;;;;;;-1.98;66.85;95476.38;5095601;28;20186;-63
2022/03/01 05:19:29;;;;;;;19.00;17.13;;;;;;;-2.02;66.99;95475.28;5094906;28;20181;-64
2022/03/01 05:21:58;;;;;;;19.88;17.77;;;;;;;-2.01;66.77;95482.31;5095247;28;20195;-62
2022/03/01 05:24:25;;;;;;;20.27;17.77;;;;;;;-1.99;66.57;95483.69;5095251;28;20216;-65
2022/03/01 05:26:54;;;;;;;20.70;18.60;;;;;;;-1.95;66.93;95486.69;5095311;28;20302;-62
2022/03/01 05:29:22;;;;;;;20.30;18.25;;;;;;;-1.90;65.93;95481.28;5094734;28;20739;-62
2022/03/01 05:31:49;;;;;;;22.80;20.60;;;;;;;-1.87;66.51;95483.47;5093978;28;20210;-63
2022/03/01 05:34:17;;;;;;;22.80;20.40;;;;;;;-1.85;66.11;95485.88;5095158;28;20188;-63
2022/03/01 05:36:43;;;;;;;23.65;21.38;;;;;;;-1.89;66.28;95487.50;5095085;28;20521;-62
2022/03/01 05:39:10;;;;;;;22.15;20.02;;;;;;;-1.87;66.17;95482.66;5093860;28;20211;-62
2022/03/01 05:41:37;;;;;;;26.75;24.15;;;;;;;-1.88;66.41;95481.84;5094095;28;20193;-62
2022/03/01 05:44:04;;;;;;;25.08;22.55;;;;;;;-1.88;66.33;95489.16;5094733;28;20184;-63
2022/03/01 05:46:33;;;;;;;23.35;20.95;;;;;;;-1.88;66.88;95489.16;5094961;28;20245;-62
2022/03/01 05:48:59;;;;;;;22.85;20.55;;;;;;;-1.79;66.67;95495.66;5094169;28;20200;-62
2022/03/01 05:51:26;;;;;;;24.95;22.40;;;;;;;-1.77;67.35;95499.72;5097552;28;20192;-63
2022/03/01 05:53:54;;;;;;;24.95;22.35;;;;;;;-1.75;66.74;95500.25;5098314;28;20214;-63
2022/03/01 05:56:20;;;;;;;24.13;20.67;;;;;;;-1.72;66.77;95497.03;5099083;28;20180;-63
2022/03/01 05:58:47;;;;;;;23.17;20.77;;;;;;;-1.65;66.98;95504.91;5098859;28;20206;-63
2022/03/01 06:01:14;;;;;;;24.83;22.33;;;;;;;-1.60;66.87;95512.22;5097817;28;20195;-62
2022/03/01 06:03:42;;;;;;;24.83;22.33;;;;;;;-1.58;67.04;95518.19;5097826;28;20192;-62
2022/03/01 06:06:09;;;;;;;22.58;20.17;;;;;;;-1.57;66.50;95507.09;5098755;28;20204;-62
2022/03/01 06:08:36;;;;;;;21.48;19.38;;;;;;;-1.57;67.22;95508.97;5098595;28;20185;-62
2022/03/01 06:11:03;;;;;;;19.50;17.60;;;;;;;-1.54;66.71;95509.25;5098091;28;20189;-63
2022/03/01 06:13:29;;;;;;;19.50;17.65;;;;;;;-1.47;67.08;95517.94;5098542;28;20277;-63
2022/03/01 06:15:57;;;;;;;18.65;16.98;;;;;;;-1.38;66.29;95517.41;5098281;28;20193;-63
2022/03/01 06:18:24;;;;;;;18.17;16.48;;;;;;;-1.29;65.78;95516.66;5097238;28;20193;-62
2022/03/01 06:20:52;;;;;;;17.98;16.35;;;;;;;-1.23;65.75;95517.47;5098475;28;20189;-62
2022/03/01 06:23:19;;;;;;;16.83;15.32;;;;;;;-1.17;65.55;95521.81;5097394;28;20204;-62
2022/03/01 06:25:46;;;;;;;17.45;15.88;;;;;;;-1.06;65.81;95526.16;5098146;28;20196;-62
2022/03/01 06:28:12;;;;;;;16.88;15.38;;;;;;;-0.99;65.56;95521.28;5098306;28;20212;-62
2022/03/01 06:30:39;;;;;;;11.73;10.77;;;;;;;-0.92;65.01;95514.81;5097905;28;20239;-62
2022/03/01 06:33:06;;;;;;;10.65;9.70;;;;;;;-0.80;64.17;95515.34;5099244;28;20200;-62
2022/03/01 06:35:33;;;;;;;11.32;10.32;;;;;;;-0.67;63.64;95516.72;5097194;28;20200;-62
2022/03/01 06:38:01;;;;;;;10.65;9.75;;;;;;;-0.56;63.25;95518.34;5098193;28;20192;-62
2022/03/01 06:40:29;;;;;;;8.75;8.05;;;;;;;-0.43;63.32;95519.72;5097966;28;20601;-63
2022/03/01 06:42:55;;;;;;;8.05;7.38;;;;;;;-0.33;62.43;95509.66;5097355;28;20196;-63
2022/03/01 06:45:22;;;;;;;5.88;5.45;;;;;;;-0.23;61.64;95516.16;5097682;28;20185;-63
2022/03/01 06:47:49;;;;;;;5.75;5.25;;;;;;;-0.10;61.04;95508.25;5097178;28;20216;-63
2022/03/01 06:50:16;;;;;;;6.63;6.03;;;;;;;0.04;60.83;95503.06;5096913;28;20216;-63
2022/03/01 06:52:43;;;;;;;10.63;9.63;;;;;;;0.12;60.32;95509.84;5097540;28;20187;-63
2022/03/01 06:55:11;;;;;;;8.80;8.10;;;;;;;0.22;60.44;95507.91;5097742;28;20181;-63
2022/03/01 06:57:39;;;;;;;7.85;7.15;;;;;;;0.28;59.79;95500.53;5097383;28;20321;-63
2022/03/01 07:00:07;;;;;;;7.22;5.88;;;;;;;0.30;59.74;95503.00;5097424;28;20203;-63
2022/03/01 07:02:38;;;;;;;5.88;5.47;;;;;;;0.39;59.96;95502.13;5097484;28;20188;-63
2022/03/01 07:05:06;;;;;;;7.68;7.07;;;;;;;0.52;59.54;95505.34;5096946;28;20200;-63
2022/03/01 07:07:33;;;;;;;7.88;7.18;;;;;;;0.56;59.87;95504.50;5097210;28;20645;-63
2022/03/01 07:09:59;;;;;;;6.90;6.20;;;;;;;0.69;59.46;95508.50;5097188;28;20185;-63
2022/03/01 07:12:28;;;;;;;6.88;6.28;;;;;;;0.80;59.79;95506.53;5097140;28;20192;-63
2022/03/01 07:14:55;;;;;;;5.28;4.88;;;;;;;0.78;59.38;95506.00;5097458;28;20207;-63
2022/03/01 07:17:21;;;;;;;5.50;5.00;;;;;;;0.90;59.54;95509.19;5097491;28;20196;-63
2022/03/01 07:19:49;;;;;;;5.20;4.80;;;;;;;0.95;58.91;95509.97;5096435;28;20597;-63
2022/03/01 07:22:15;;;;;;;5.85;5.43;;;;;;;0.99;58.98;95509.44;5097018;28;20191;-63
2022/03/01 07:24:42;;;;;;;5.20;4.78;;;;;;;0.67;59.22;95506.06;5096329;28;20207;-63
2022/03/01 07:27:09;;;;;;;4.30;4.00;;;;;;;0.32;59.23;95515.16;5096333;28;20216;-63
2022/03/01 07:29:37;;;;;;;4.18;3.85;;;;;;;0.33;60.52;95510.59;5096835;28;20269;-63
2022/03/01 07:32:06;;;;;;;4.50;4.18;;;;;;;0.46;60.23;95508.06;5096178;28;20192;-63
2022/03/01 07:34:33;;;;;;;5.22;4.20;;;;;;;0.56;60.03;95515.34;5095781;28;20208;-63
2022/03/01 07:37:00;;;;;;;5.47;4.70;;;;;;;0.44;59.12;95509.44;5096094;28;20195;-63
2022/03/01 07:39:26;;;;;;;5.40;4.65;;;;;;;0.60;60.09;95511.00;5095934;28;20281;-63
2022/03/01 07:41:54;;;;;;;5.70;5.20;;;;;;;0.80;60.08;95506.53;5095635;28;20206;-63
2022/03/01 07:44:20;;;;;;;5.45;5.05;;;;;;;0.72;59.01;95505.22;5096010;28;20200;-63
2022/03/01 07:46:49;;;;;;;4.93;4.53;;;;;;;0.61;59.65;95506.38;5096717;28;20215;-63
2022/03/01 07:49:16;;;;;;;5.38;4.97;;;;;;;0.79;59.38;95500.28;5096583;28;20184;-63
2022/03/01 07:51:43;;;;;;;5.40;5.00;;;;;;;1.04;60.00;95501.22;5095762;28;20612;-63
2022/03/01 07:54:09;;;;;;;5.20;4.85;;;;;;;1.11;58.41;95509.88;5096152;28;20196;-63
2022/03/01 07:56:36;;;;;;;8.43;4.78;;;;;;;0.96;59.22;95506.16;5096883;28;20275;-64
2022/03/01 07:59:03;;;;;;;4.88;4.53;;;;;;;1.04;59.00;95501.22;5095823;28;20204;-63
2022/03/01 08:01:30;;;;;;;5.30;4.90;;;;;;;1.21;58.17;95507.09;5096173;28;20180;-64
2022/03/01 08:03:58;;;;;;;4.82;4.43;;;;;;;1.12;57.63;95504.16;5096320;28;20192;-64
2022/03/01 08:06:26;;;;;;;4.68;4.35;;;;;;;1.11;58.58;95507.16;5095705;28;20200;-64
2022/03/01 08:08:53;;;;;;;4.70;4.40;;;;;;;1.17;58.52;95501.41;5096538;28;20184;-64
2022/03/01 08:11:20;;;;;;;5.18;4.78;;;;;;;1.22;58.57;95511.44;5095952;28;20184;-64
2022/03/01 08:13:47;;;;;;;4.88;4.57;;;;;;;1.22;58.80;95514.16;5095852;28;20529;-64
2022/03/01 08:16:14;;;;;;;4.68;4.32;;;;;;;1.39;58.76;95503.69;5096304;28;20197;-64
2022/03/01 08:18:41;;;;;;;4.88;4.47;;;;;;;1.39;58.04;95508.31;5095665;28;20188;-64
2022/03/01 08:21:09;;;;;;;5.65;4.60;;;;;;;1.30;57.95;95508.09;5095178;28;20297;-64
2022/03/01 08:23:36;;;;;;;5.22;4.80;;;;;;;1.39;58.73;95511.03;5095904;28;20219;-64
2022/03/01 08:26:04;;;;;;;6.47;5.72;;;;;;;1.55;59.62;95509.00;5096080;28;20208;-64
2022/03/01 08:28:31;;;;;;;6.03;5.32;;;;;;;1.79;58.60;95506.34;5094569;28;20209;-63
2022/03/01 08:30:57;;;;;;;5.75;5.25;;;;;;;1.92;58.81;95511.94;5094375;28;20235;-63
2022/03/01 08:33:25;;;;;;;6.05;5.53;;;;;;;1.87;58.36;95514.69;5095262;28;20185;-63
2022/03/01 08:35:53;;;;;;;7.13;5.40;;;;;;;2.21;58.52;95510.25;5095642;28;20194;-63
2022/03/01 08:38:21;;;;;;;5.47;5.03;;;;;;;2.33;57.14;95516.13;5095674;28;20196;-63
2022/03/01 08:40:48;;;;;;;5.47;5.00;;;;;;;2.39;56.66;95509.50;5094321;28;20330;-63
2022/03/01 08:43:15;;;;;;;4.63;4.32;;;;;;;2.36;56.72;95520.97;5095472;28;20295;-63
2022/03/01 08:45:42;;;;;;;5.45;5.05;;;;;;;2.48;56.62;95506.97;5094650;28;20559;-63
2022/03/01 08:48:09;;;;;;;4.95;4.55;;;;;;;2.32;54.97;95509.84;5093566;28;20430;-63
2022/03/01 08:50:36;;;;;;;5.50;5.10;;;;;;;2.42;56.06;95506.19;5094994;28;20196;-63
2022/03/01 08:53:03;;;;;;;5.07;4.75;;;;;;;2.67;56.73;95502.34;5094912;28;20195;-63
2022/03/01 08:55:32;;;;;;;5.88;5.47;;;;;;;2.80;55.55;95507.09;5095508;28;20227;-63
2022/03/01 08:57:59;;;;;;;5.47;5.00;;;;;;;2.68;55.78;95505.88;5095488;28;20188;-64
2022/03/01 09:00:26;;;;;;;5.57;5.18;;;;;;;2.72;55.82;95506.91;5095711;28;20267;-64
2022/03/01 09:02:53;;;;;;;4.53;4.22;;;;;;;2.74;55.73;95505.53;5095667;28;20267;-64
2022/03/01 09:05:19;;;;;;;4.70;4.40;;;;;;;2.85;55.00;95508.94;5095329;28;20196;-64
2022/03/01 09:07:46;;;;;;;4.60;4.30;;;;;;;3.08;55.22;95505.31;5095291;28;20212;-64
2022/03/01 09:10:13;;;;;;;4.53;4.13;;;;;;;3.04;53.98;95503.50;5095000;28;20593;-64
2022/03/01 09:12:41;;;;;;;5.15;4.72;;;;;;;3.18;54.51;95504.38;5094593;28;20207;-64
2022/03/01 09:15:09;;;;;;;4.88;4.47;;;;;;;3.34;54.17;95513.13;5095327;28;20238;-64
2022/03/01 09:17:36;;;;;;;6.45;5.85;;;;;;;3.38;54.55;95506.00;5095099;28;20445;-66
2022/03/01 09:20:03;;;;;;;5.25;4.80;;;;;;;3.43;53.46;95514.09;5095283;28;20597;-64
2022/03/01 09:22:30;;;;;;;4.90;4.50;;;;;;;3.46;53.40;95518.16;5094357;28;20196;-64
2022/03/01 09:24:56;;;;;;;4.80;4.43;;;;;;;3.65;51.83;95510.72;5096452;28;20254;-64
2022/03/01 09:27:23;;;;;;;4.35;3.95;;;;;;;3.56;51.94;95507.09;5099678;28;20223;-64
2022/03/01 09:29:52;;;;;;;5.10;4.70;;;;;;;3.45;54.08;95511.88;5098458;28;20253;-64
2022/03/01 09:32:18;;;;;;;4.93;4.53;;;;;;;3.36;51.92;95511.72;5099431;28;20199;-64
2022/03/01 09:34:46;;;;;;;5.65;4.95;;;;;;;3.21;52.17;95506.50;5098992;28;20180;-64
2022/03/01 09:37:12;;;;;;;5.13;4.72;;;;;;;3.10;51.58;95508.56;5099297;28;20189;-64
2022/03/01 09:39:39;;;;;;;4.93;4.53;;;;;;;3.00;54.66;95510.63;5098201;28;20616;-63
2022/03/01 09:42:08;;;;;;;5.50;5.10;;;;;;;3.19;55.07;95514.16;5099492;28;20196;-63
2022/03/01 09:44:35;;;;;;;6.55;5.95;;;;;;;3.40;54.67;95505.69;5099300;28;20181;-63
2022/03/01 09:47:04;;;;;;;6.25;5.70;;;;;;;3.58;54.44;95519.28;5098757;28;20180;-63
2022/03/01 09:49:31;;;;;;;5.95;5.45;;;;;;;3.66;52.36;95508.81;5097838;28;20632;-63
2022/03/01 09:51:58;;;;;;;6.47;5.90;;;;;;;3.74;52.83;95508.97;5099137;28;20177;-63
2022/03/01 09:54:24;;;;;;;7.28;6.65;;;;;;;3.92;54.55;95506.44;5099039;28;20193;-63
2022/03/01 09:56:51;;;;;;;6.13;5.53;;;;;;;3.88;53.63;95510.91;5098623;28;20199;-64
2022/03/01 09:59:19;;;;;;;6.80;6.20;;;;;;;3.72;53.03;95513.88;5098042;28;20202;-64
2022/03/01 10:01:49;;;;;;;6.40;5.80;;;;;;;3.95;52.90;95505.84;5097905;28;20250;-64
2022/03/01 10:04:17;;;;;;;6.38;5.88;;;;;;;4.06;53.27;95497.19;5098551;28;20176;-64
2022/03/01 10:06:46;;;;;;;5.40;5.00;;;;;;;4.27;53.31;95502.28;5098440;28;20185;-64
2022/03/01 10:09:15;;;;;;;6.00;5.50;;;;;;;4.60;54.03;95500.25;5098533;28;20201;-63
2022/03/01 10:11:42;;;;;;;6.30;5.80;;;;;;;4.52;50.79;95504.50;5098628;28;20187;-63
2022/03/01 10:14:09;;;;;;;6.47;5.90;;;;;;;4.58;52.50;95495.09;5098376;28;20196;-63
2022/03/01 10:16:41;;;;;;;6.60;6.07;;;;;;;4.65;52.63;95497.44;5098962;28;20195;-64
2022/03/01 10:19:17;;;;;;;6.43;5.93;;;;;;;4.57;51.62;95496.22;5098296;28;20220;-63
2022/03/01 10:21:48;;;;;;;6.93;6.43;;;;;;;4.48;52.02;95489.03;5098473;28;20211;-63
2022/03/01 10:24:15;;;;;;;6.60;6.10;;;;;;;4.46;51.37;95493.97;5097969;28;20192;-63
2022/03/01 10:26:44;;;;;;;6.72;6.22;;;;;;;4.51;50.42;95488.44;5098452;28;20227;-63
2022/03/01 10:29:11;;;;;;;6.60;6.10;;;;;;;4.50;51.09;95482.16;5098350;28;20252;-63
2022/03/01 10:31:38;;;;;;;5.80;5.40;;;;;;;4.54;49.87;95485.91;5097352;28;20196;-63
2022/03/01 10:34:06;;;;;;;7.00;6.40;;;;;;;4.58;51.17;95491.56;5097708;28;20422;-63
2022/03/01 10:36:37;;;;;;;5.80;5.40;;;;;;;4.60;51.63;95489.31;5097765;28;20189;-63
2022/03/01 10:39:06;;;;;;;6.63;6.03;;;;;;;3.62;51.88;95484.84;5096815;28;20200;-64
2022/03/01 10:41:34;;;;;;;7.00;6.30;;;;;;;3.03;54.21;95490.97;5097328;28;20196;-63
2022/03/01 10:44:03;;;;;;;10.43;9.52;;;;;;;3.08;55.38;95475.34;5096956;28;20425;-63
2022/03/01 10:46:30;;;;;;;8.45;7.75;;;;;;;2.94;55.57;95476.38;5098203;28;20259;-63
2022/03/01 10:49:05;;;;;;;8.00;7.30;;;;;;;2.80;56.22;95471.69;5097937;28;20204;-63
2022/03/01 10:51:32;;;;;;;9.35;8.57;;;;;;;2.74;55.84;95472.03;5097791;28;20192;-63
2022/03/01 10:54:01;;;;;;;9.90;9.00;;;;;;;2.74;55.83;95467.41;5096907;28;20204;-63
2022/03/01 10:56:36;;;;;;;9.57;8.77;;;;;;;2.70;56.45;95468.28;5097807;28;20269;-63
2022/03/01 10:59:03;;;;;;;10.95;9.95;;;;;;;2.75;56.54;95460.03;5097415;28;20184;-63
2022/03/01 11:01:30;;;;;;;13.32;12.07;;;;;;;3.02;56.14;95459.38;5098203;28;20207;-63
2022/03/01 11:03:57;;;;;;;9.00;8.18;;;;;;;3.28;55.63;95463.34;5096791;28;20192;-63
2022/03/01 11:06:24;;;;;;;7.75;7.00;;;;;;;3.45;54.19;95460.06;5096362;28;20188;-63
2022/03/01 11:08:51;;;;;;;8.38;7.68;;;;;;;3.83;54.51;95452.56;5096876;28;20295;-64
2022/03/01 11:11:24;;;;;;;7.80;7.10;;;;;;;4.03;53.40;95447.84;5097199;28;20200;-63
2022/03/01 11:13:52;;;;;;;7.85;7.15;;;;;;;4.46;53.81;95439.34;5097690;28;20189;-63
2022/03/01 11:16:45;;;;;;;8.38;7.57;;;;;;;4.51;51.31;95442.00;5097461;28;20191;-66
2022/03/01 11:19:25;;;;;;;7.65;6.85;;;;;;;3.97;51.39;95444.41;5094554;28;20266;-63
2022/03/01 11:21:52;;;;;;;6.00;5.40;;;;;;;3.51;51.84;95434.31;5096773;28;20200;-63
2022/03/01 11:24:20;;;;;;;6.38;5.72;;;;;;;3.64;53.06;95435.47;5095929;28;20627;-63
2022/03/01 11:26:49;;;;;;;6.07;5.57;;;;;;;3.50;52.01;95434.63;5096586;28;20211;-63
2022/03/01 11:29:17;;;;;;;6.63;6.07;;;;;;;3.45;52.58;95430.06;5095945;28;20236;-63